Time;durP1;ratioP1;P1;durP2;ratioP2;P2;SDS_P1;SDS_P2;PMS_P1;PMS_P2;Temp;Humidity;BMP_temperature;BMP_pressure;BME280_temperature;BME280_humidity;BME280_pressure;Samples;Min_cycle;Max_cycle;Signal;HPM_P1;HPM_P2
2022/03/01 00:01:32;;;;;;;38.45;21.30;;;3.00;99.90;;;;;;5002215;28;20202;-81
2022/03/01 00:03:59;;;;;;;35.85;20.80;;;2.90;99.90;;;;;;4998768;28;20202;-81
2022/03/01 00:06:25;;;;;;;33.95;21.05;;;2.90;99.90;;;;;;4994462;28;20244;-81
2022/03/01 00:08:54;;;;;;;33.28;20.83;;;2.90;99.90;;;;;;4997272;28;20308;-81
2022/03/01 00:11:21;;;;;;;29.92;19.60;;;2.90;99.90;;;;;;5001922;28;20276;-81
2022/03/01 00:13:48;;;;;;;38.88;21.70;;;2.90;99.90;;;;;;4999632;28;20244;-83
2022/03/01 00:16:14;;;;;;;37.30;20.83;;;2.90;99.90;;;;;;5001117;28;20245;-80
2022/03/01 00:18:44;;;;;;;33.75;20.67;;;2.90;99.90;;;;;;4985878;28;20232;-82
2022/03/01 00:21:11;;;;;;;41.50;21.75;;;2.90;99.90;;;;;;4996288;28;20218;-79
2022/03/01 00:23:38;;;;;;;41.45;23.48;;;2.90;99.90;;;;;;5001139;28;20233;-80
2022/03/01 00:26:05;;;;;;;34.65;20.23;;;2.90;99.90;;;;;;4996027;28;20753;-78
2022/03/01 00:28:32;;;;;;;38.33;21.83;;;2.90;99.90;;;;;;4996622;28;20229;-81
2022/03/01 00:30:58;;;;;;;40.15;19.98;;;3.00;99.90;;;;;;4993657;28;20202;-81
2022/03/01 00:33:25;;;;;;;40.97;22.65;;;2.90;99.90;;;;;;5000055;28;20265;-80
2022/03/01 00:35:53;;;;;;;36.97;20.98;;;2.90;99.90;;;;;;5003682;28;20244;-81
2022/03/01 00:38:20;;;;;;;40.42;22.65;;;2.90;99.90;;;;;;4997542;28;20672;-80
2022/03/01 00:40:48;;;;;;;34.15;20.05;;;2.90;99.90;;;;;;4997286;28;20240;-81
2022/03/01 00:43:14;;;;;;;39.13;23.38;;;2.90;99.90;;;;;;5000436;28;20292;-80
2022/03/01 00:45:42;;;;;;;34.95;19.92;;;2.90;99.90;;;;;;4992475;28;20240;-80
2022/03/01 00:48:09;;;;;;;35.47;21.77;;;2.80;99.90;;;;;;4994616;28;20748;-82
2022/03/01 00:50:35;;;;;;;49.10;23.15;;;2.80;99.90;;;;;;4997955;28;20211;-80
2022/03/01 00:53:04;;;;;;;39.90;21.60;;;2.70;99.90;;;;;;5004632;28;20229;-81
2022/03/01 00:55:31;;;;;;;42.67;21.70;;;2.70;99.90;;;;;;4999380;28;20267;-81
2022/03/01 00:57:59;;;;;;;34.78;20.73;;;2.70;99.90;;;;;;4999610;28;20329;-78
2022/03/01 01:00:26;;;;;;;36.53;20.98;;;2.70;99.90;;;;;;4984895;28;20226;-80
2022/03/01 01:02:52;;;;;;;41.00;21.15;;;2.70;99.90;;;;;;4999635;28;20288;-79
2022/03/01 01:05:19;;;;;;;36.00;21.27;;;2.70;99.90;;;;;;5000736;28;20274;-79
2022/03/01 01:07:47;;;;;;;34.25;20.17;;;2.60;99.90;;;;;;5003833;28;20256;-80
2022/03/01 01:10:15;;;;;;;32.83;21.35;;;2.60;99.90;;;;;;5005928;28;20221;-81
2022/03/01 01:12:42;;;;;;;49.70;22.50;;;2.70;99.90;;;;;;5008451;28;20254;-79
2022/03/01 01:15:11;;;;;;;38.75;21.17;;;2.60;99.90;;;;;;5004500;28;20212;-81
2022/03/01 01:17:38;;;;;;;37.10;20.67;;;2.60;99.90;;;;;;5010058;28;20213;-81
2022/03/01 01:20:08;;;;;;;38.42;22.30;;;2.70;99.90;;;;;;5001204;28;20246;-79
2022/03/01 01:22:41;;;;;;;33.83;20.48;;;2.60;99.90;;;;;;5008871;28;20244;-80
2022/03/01 01:25:10;;;;;;;32.15;19.35;;;2.70;99.90;;;;;;5017472;28;20210;-80
2022/03/01 01:27:40;;;;;;;36.05;20.92;;;2.60;99.90;;;;;;5016975;28;20220;-81
2022/03/01 01:30:09;;;;;;;29.83;18.73;;;2.70;99.90;;;;;;5005955;28;20183;-80
2022/03/01 01:32:36;;;;;;;43.13;23.25;;;2.50;99.90;;;;;;5010913;28;20233;-81
2022/03/01 01:35:03;;;;;;;37.13;20.40;;;2.50;99.90;;;;;;5005738;28;20186;-80
2022/03/01 01:37:30;;;;;;;33.25;21.60;;;2.50;99.90;;;;;;5014902;28;20205;-81
2022/03/01 01:39:57;;;;;;;33.65;20.52;;;2.50;99.90;;;;;;5007653;28;20209;-79
2022/03/01 01:42:24;;;;;;;33.50;19.15;;;2.50;99.90;;;;;;5010396;28;20213;-79
2022/03/01 01:44:52;;;;;;;34.65;18.80;;;2.50;99.90;;;;;;4998706;28;20293;-80
2022/03/01 01:47:19;;;;;;;37.05;19.60;;;2.40;99.90;;;;;;5001212;28;20241;-78
2022/03/01 01:49:46;;;;;;;34.85;19.40;;;2.40;99.90;;;;;;5000538;28;20277;-79
2022/03/01 01:52:13;;;;;;;33.78;18.70;;;2.40;99.90;;;;;;4994987;28;20217;-80
2022/03/01 01:54:41;;;;;;;31.65;20.38;;;2.40;99.90;;;;;;4990060;28;20265;-80
2022/03/01 01:57:15;;;;;;;37.47;19.60;;;2.40;99.90;;;;;;4993809;28;20229;-80
2022/03/01 01:59:42;;;;;;;31.63;20.50;;;2.40;99.90;;;;;;4996371;28;20201;-78
2022/03/01 02:02:12;;;;;;;31.65;19.55;;;2.40;99.90;;;;;;5009496;28;20239;-79
2022/03/01 02:04:39;;;;;;;29.60;19.30;;;2.40;99.90;;;;;;5002572;28;20633;-79
2022/03/01 02:07:07;;;;;;;37.08;21.58;;;2.40;99.90;;;;;;4998120;28;20238;-80
2022/03/01 02:09:35;;;;;;;34.75;20.92;;;2.30;99.90;;;;;;5001790;28;20277;-79
2022/03/01 02:12:03;;;;;;;34.50;19.95;;;2.30;99.90;;;;;;5007209;28;20237;-80
2022/03/01 02:14:31;;;;;;;31.77;18.92;;;2.30;99.90;;;;;;5013423;28;20206;-81
2022/03/01 02:16:59;;;;;;;35.22;19.45;;;2.30;99.90;;;;;;5001203;28;20209;-79
2022/03/01 02:19:28;;;;;;;38.65;19.67;;;2.20;99.90;;;;;;5013826;28;20292;-78
2022/03/01 02:21:57;;;;;;;34.75;18.88;;;2.20;99.90;;;;;;5002874;28;20640;-79
2022/03/01 02:24:26;;;;;;;34.45;19.50;;;2.20;99.90;;;;;;5008289;28;20252;-80
2022/03/01 02:26:55;;;;;;;35.08;19.92;;;2.20;99.90;;;;;;5003900;28;20269;-80
2022/03/01 02:29:22;;;;;;;29.85;18.92;;;2.20;99.90;;;;;;5007195;28;20232;-78
2022/03/01 02:31:49;;;;;;;32.33;20.02;;;2.20;99.90;;;;;;4997785;28;20241;-79
2022/03/01 02:34:16;;;;;;;35.05;19.70;;;2.20;99.90;;;;;;4989146;28;20271;-79
2022/03/01 02:36:43;;;;;;;36.70;20.83;;;2.20;99.90;;;;;;5006731;28;20297;-79
2022/03/01 02:39:12;;;;;;;36.53;21.65;;;2.20;99.90;;;;;;5009306;28;20285;-79
2022/03/01 02:41:39;;;;;;;35.83;20.67;;;2.30;99.90;;;;;;5007908;28;20648;-78
2022/03/01 02:44:06;;;;;;;33.10;19.80;;;2.20;99.90;;;;;;5006105;28;20234;-79
2022/03/01 02:46:34;;;;;;;39.78;19.85;;;2.10;99.90;;;;;;5006290;28;20236;-78
2022/03/01 02:49:02;;;;;;;35.58;19.88;;;2.10;99.90;;;;;;5004468;28;20317;-79
2022/03/01 02:51:29;;;;;;;37.15;19.27;;;2.20;99.90;;;;;;4997408;28;20232;-80
2022/03/01 02:53:56;;;;;;;34.10;19.73;;;2.10;99.90;;;;;;4991752;28;20317;-80
2022/03/01 02:56:25;;;;;;;35.65;20.98;;;2.10;99.90;;;;;;4997735;28;20693;-80
2022/03/01 02:58:55;;;;;;;39.35;20.95;;;2.10;99.90;;;;;;5010130;28;20226;-81
2022/03/01 03:01:22;;;;;;;36.97;20.67;;;2.20;99.90;;;;;;5003626;28;20202;-79
2022/03/01 03:03:49;;;;;;;32.60;18.85;;;2.20;99.90;;;;;;5003925;28;20342;-80
2022/03/01 03:06:16;;;;;;;36.55;21.25;;;2.20;99.90;;;;;;4996703;28;20202;-80
2022/03/01 03:08:44;;;;;;;31.08;19.23;;;2.20;99.90;;;;;;5033474;23;20285;-84
2022/03/01 03:11:17;;;;;;;27.50;17.20;;;2.10;99.90;;;;;;5019673;28;20225;-83
2022/03/01 03:13:56;;;;;;;31.10;18.65;;;1.90;99.90;;;;;;5036455;28;20231;-83
2022/03/01 03:16:27;;;;;;;33.35;18.08;;;2.20;99.90;;;;;;5021209;28;20201;-84
2022/03/01 03:18:56;;;;;;;32.35;19.35;;;2.10;99.90;;;;;;5021038;28;20194;-83
2022/03/01 03:21:49;;;;;;;32.50;19.30;;;2.10;99.90;;;;;;5021071;28;20624;-83
2022/03/01 03:24:20;;;;;;;36.92;20.38;;;2.10;99.90;;;;;;5021137;28;20196;-85
2022/03/01 03:26:48;;;;;;;30.83;17.20;;;2.00;99.90;;;;;;5021133;28;20202;-85
2022/03/01 03:29:21;;;;;;;25.05;16.13;;;2.00;99.90;;;;;;5020865;28;20261;-86
2022/03/01 03:31:48;;;;;;;28.33;16.40;;;2.00;99.90;;;;;;5021026;28;20177;-84
2022/03/01 03:34:16;;;;;;;29.65;16.30;;;2.10;99.90;;;;;;5020629;28;20217;-86
2022/03/01 03:36:44;;;;;;;32.08;19.25;;;1.90;99.90;;;;;;5020718;28;20197;-84
2022/03/01 03:39:13;;;;;;;37.22;16.60;;;1.90;99.90;;;;;;5020596;28;20213;-84
2022/03/01 03:41:41;;;;;;;31.35;17.45;;;1.90;99.90;;;;;;5020544;28;20197;-84
2022/03/01 03:44:09;;;;;;;36.70;19.13;;;1.90;99.90;;;;;;5013061;28;20677;-84
2022/03/01 03:46:37;;;;;;;27.27;17.52;;;1.90;99.90;;;;;;5006107;28;20258;-84
2022/03/01 03:49:05;;;;;;;32.50;17.33;;;1.90;99.90;;;;;;5005052;28;20293;-84
2022/03/01 03:51:32;;;;;;;33.85;18.75;;;1.80;99.90;;;;;;5004046;28;20673;-84
2022/03/01 03:54:00;;;;;;;28.05;16.75;;;1.90;99.90;;;;;;5003604;28;20231;-84
2022/03/01 03:56:26;;;;;;;29.67;16.02;;;1.80;99.90;;;;;;5003745;28;20225;-84
2022/03/01 03:58:55;;;;;;;35.15;18.25;;;1.80;99.90;;;;;;5003484;28;20255;-84
2022/03/01 04:01:22;;;;;;;34.67;17.40;;;1.70;99.90;;;;;;5003178;28;20295;-85
2022/03/01 04:03:51;;;;;;;29.25;16.80;;;1.80;99.90;;;;;;5003650;28;20212;-84
2022/03/01 04:06:18;;;;;;;27.10;18.00;;;1.70;99.90;;;;;;5003866;28;20229;-84
2022/03/01 04:08:45;;;;;;;31.98;17.05;;;1.70;99.90;;;;;;5012116;28;20642;-84
2022/03/01 04:11:12;;;;;;;35.00;17.20;;;1.70;99.90;;;;;;5009319;28;20274;-85
2022/03/01 04:13:39;;;;;;;30.67;17.75;;;1.80;99.90;;;;;;5004177;28;20300;-85
2022/03/01 04:16:06;;;;;;;34.08;16.85;;;1.60;99.90;;;;;;5003494;28;20269;-83
2022/03/01 04:18:33;;;;;;;28.75;17.42;;;1.60;99.90;;;;;;5001370;28;20231;-84
2022/03/01 04:21:03;;;;;;;30.48;16.48;;;1.60;99.90;;;;;;5004012;28;20284;-84
2022/03/01 04:23:30;;;;;;;29.48;16.50;;;1.60;99.90;;;;;;5008828;28;20279;-84
2022/03/01 04:25:57;;;;;;;33.78;16.42;;;1.60;99.90;;;;;;5001941;28;20240;-84
2022/03/01 04:28:24;;;;;;;33.40;16.23;;;1.60;99.90;;;;;;5003165;28;20219;-84
2022/03/01 04:30:51;;;;;;;25.17;16.35;;;1.60;99.90;;;;;;5017689;28;20205;-84
2022/03/01 04:33:18;;;;;;;25.73;16.85;;;1.50;99.90;;;;;;4999871;28;20252;-85
2022/03/01 04:35:45;;;;;;;33.92;17.45;;;1.50;99.90;;;;;;5002053;28;20245;-84
2022/03/01 04:38:13;;;;;;;28.17;16.08;;;1.50;99.90;;;;;;5003113;28;20258;-85
2022/03/01 04:40:40;;;;;;;31.98;16.70;;;1.50;99.90;;;;;;4991583;28;20236;-84
2022/03/01 04:43:07;;;;;;;25.83;15.77;;;1.50;99.90;;;;;;4989192;28;20302;-84
2022/03/01 04:45:34;;;;;;;29.65;17.80;;;1.50;99.90;;;;;;5002124;28;20229;-83
2022/03/01 04:48:01;;;;;;;21.02;13.88;;;1.50;99.90;;;;;;5005444;28;20226;-84
2022/03/01 04:50:28;;;;;;;25.88;15.63;;;1.50;99.90;;;;;;5009557;28;20225;-84
2022/03/01 04:52:55;;;;;;;27.40;14.52;;;1.20;99.90;;;;;;5002660;28;20284;-84
2022/03/01 04:55:23;;;;;;;24.42;14.65;;;1.40;99.90;;;;;;5006533;28;20379;-83
2022/03/01 04:57:50;;;;;;;29.25;15.52;;;1.40;99.90;;;;;;5009107;28;20249;-83
2022/03/01 05:00:17;;;;;;;24.17;15.45;;;1.40;99.90;;;;;;5013280;28;20297;-83
2022/03/01 05:02:47;;;;;;;30.27;14.65;;;1.40;99.90;;;;;;5018660;28;20225;-85
2022/03/01 05:05:14;;;;;;;22.98;13.95;;;1.40;99.90;;;;;;5014817;28;20266;-84
2022/03/01 05:07:42;;;;;;;25.40;14.73;;;1.40;99.90;;;;;;5013259;28;20237;-84
2022/03/01 05:10:11;;;;;;;25.48;14.32;;;1.40;99.90;;;;;;5001453;28;20225;-84
2022/03/01 05:12:44;;;;;;;25.25;16.13;;;1.40;99.90;;;;;;5015307;28;20225;-84
2022/03/01 05:15:11;;;;;;;33.40;16.83;;;1.40;99.90;;;;;;5010044;28;20280;-85
2022/03/01 05:17:38;;;;;;;29.58;16.25;;;1.50;99.90;;;;;;5012624;28;20229;-85
2022/03/01 05:20:07;;;;;;;24.90;14.18;;;1.40;99.90;;;;;;5004016;28;20210;-84
2022/03/01 05:22:34;;;;;;;22.20;14.40;;;1.40;99.90;;;;;;4997300;28;20233;-84
2022/03/01 05:25:01;;;;;;;32.35;14.85;;;1.40;99.90;;;;;;5001077;28;20197;-85
2022/03/01 05:27:29;;;;;;;28.83;16.23;;;1.40;99.90;;;;;;5004369;28;20710;-84
2022/03/01 05:29:57;;;;;;;24.67;14.07;;;1.30;99.90;;;;;;4998191;28;20210;-86
2022/03/01 05:32:29;;;;;;;29.02;15.30;;;1.40;99.90;;;;;;5001942;28;20228;-83
2022/03/01 05:34:56;;;;;;;24.80;14.88;;;1.30;99.90;;;;;;5007973;28;20236;-84
2022/03/01 05:37:23;;;;;;;31.90;16.58;;;1.40;99.90;;;;;;5000801;28;20196;-83
2022/03/01 05:39:50;;;;;;;22.45;12.77;;;1.30;99.90;;;;;;4998239;28;20606;-84
2022/03/01 05:42:18;;;;;;;33.50;14.27;;;1.20;99.90;;;;;;5002607;28;20324;-89
2022/03/01 05:44:45;;;;;;;28.15;13.75;;;1.20;99.90;;;;;;5007337;28;20202;-84
2022/03/01 05:47:14;;;;;;;23.13;15.00;;;1.20;99.90;;;;;;5009491;28;20287;-83
2022/03/01 05:49:42;;;;;;;23.45;13.20;;;1.20;99.90;;;;;;5008779;28;20233;-83
2022/03/01 05:52:09;;;;;;;28.40;14.82;;;1.20;99.90;;;;;;5013426;28;20306;-83
2022/03/01 05:54:36;;;;;;;25.33;13.73;;;1.30;99.90;;;;;;5003457;28;20249;-83
2022/03/01 05:57:03;;;;;;;24.92;14.55;;;1.30;99.90;;;;;;5000764;28;20210;-83
2022/03/01 05:59:30;;;;;;;25.45;15.15;;;1.30;99.90;;;;;;5008862;28;20282;-83
2022/03/01 06:01:57;;;;;;;21.50;13.60;;;1.20;99.90;;;;;;5013188;28;20213;-83
2022/03/01 06:04:26;;;;;;;31.02;14.68;;;1.40;99.90;;;;;;5007988;28;20206;-85
2022/03/01 06:06:53;;;;;;;23.20;13.80;;;1.20;99.90;;;;;;5003101;28;20204;-81
2022/03/01 06:09:20;;;;;;;25.42;13.73;;;1.20;99.90;;;;;;5004247;28;20309;-84
2022/03/01 06:11:46;;;;;;;31.73;14.55;;;1.30;99.90;;;;;;5002458;28;20205;-84
2022/03/01 06:14:13;;;;;;;21.70;13.85;;;1.20;99.90;;;;;;5004487;28;20821;-82
2022/03/01 06:16:41;;;;;;;30.27;15.52;;;1.20;99.90;;;;;;5006303;28;20273;-83
2022/03/01 06:19:08;;;;;;;32.40;15.57;;;1.30;99.90;;;;;;5016264;28;20219;-83
2022/03/01 06:21:36;;;;;;;23.17;15.18;;;1.30;99.90;;;;;;5016690;28;20230;-83
2022/03/01 06:24:04;;;;;;;27.40;14.40;;;1.30;99.90;;;;;;5017388;28;20189;-83
2022/03/01 06:26:31;;;;;;;21.45;13.52;;;1.30;99.90;;;;;;5020220;28;20228;-83
2022/03/01 06:28:59;;;;;;;24.05;13.88;;;1.30;99.90;;;;;;5019535;28;20245;-83
2022/03/01 06:31:25;;;;;;;21.13;13.60;;;1.30;99.90;;;;;;5018621;28;20234;-83
2022/03/01 06:33:52;;;;;;;25.27;13.70;;;1.40;99.90;;;;;;5017490;28;20235;-83
2022/03/01 06:36:19;;;;;;;26.38;13.95;;;1.40;99.90;;;;;;5008286;28;20228;-82
2022/03/01 06:38:47;;;;;;;22.00;13.75;;;1.50;99.90;;;;;;5006105;28;20287;-82
2022/03/01 06:41:14;;;;;;;22.00;13.65;;;1.50;99.90;;;;;;5005272;28;20258;-83
2022/03/01 06:43:41;;;;;;;23.27;13.20;;;1.60;99.90;;;;;;5004855;28;20275;-83
2022/03/01 06:46:09;;;;;;;22.88;13.00;;;1.50;99.90;;;;;;5006583;28;20233;-84
2022/03/01 06:48:36;;;;;;;27.23;16.95;;;1.60;99.90;;;;;;5004429;28;20717;-84
2022/03/01 06:51:05;;;;;;;24.13;12.82;;;1.70;99.90;;;;;;5006366;28;20197;-85
2022/03/01 06:53:32;;;;;;;21.83;12.52;;;1.80;99.90;;;;;;5003867;28;20236;-83
2022/03/01 06:56:00;;;;;;;21.40;13.80;;;1.70;99.90;;;;;;5004313;28;20203;-84
2022/03/01 06:58:27;;;;;;;23.17;12.85;;;1.80;99.90;;;;;;5005191;28;20284;-83
2022/03/01 07:00:54;;;;;;;21.75;13.75;;;1.90;99.90;;;;;;5005830;28;20212;-83
2022/03/01 07:03:21;;;;;;;20.55;13.05;;;1.90;99.90;;;;;;5003747;28;20717;-85
2022/03/01 07:05:48;;;;;;;20.33;14.50;;;2.00;99.90;;;;;;5002816;28;20620;-83
2022/03/01 07:08:15;;;;;;;21.90;12.85;;;2.20;99.90;;;;;;5002897;28;20307;-84
2022/03/01 07:10:42;;;;;;;26.67;13.98;;;2.60;99.90;;;;;;5003758;28;20222;-84
2022/03/01 07:13:10;;;;;;;24.65;13.48;;;3.40;99.90;;;;;;5000795;28;20268;-84
2022/03/01 07:15:38;;;;;;;23.83;13.63;;;4.00;99.90;;;;;;5011245;28;20256;-82
2022/03/01 07:18:05;;;;;;;16.38;10.73;;;4.80;99.90;;;;;;5004773;28;20221;-83
2022/03/01 07:20:32;;;;;;;19.88;11.82;;;5.90;99.90;;;;;;5011497;28;20298;-83
2022/03/01 07:22:59;;;;;;;17.65;12.07;;;6.70;99.90;;;;;;5006614;28;20264;-83
2022/03/01 07:25:25;;;;;;;13.80;9.70;;;7.60;99.70;;;;;;5005762;28;20205;-83
2022/03/01 07:31:24;;;;;;;21.13;14.38;;;8.70;93.30;;;;;;5005087;28;20216;-86
2022/03/01 07:33:57;;;;;;;22.88;12.02;;;9.00;92.90;;;;;;5005193;28;20261;-84
2022/03/01 07:37:05;;;;;;;19.77;11.90;;;9.20;92.00;;;;;;5003089;28;20209;-84
2022/03/01 07:39:38;;;;;;;22.15;12.98;;;8.30;92.90;;;;;;4992707;28;20285;-83
2022/03/01 07:45:22;;;;;;;20.95;13.48;;;9.30;91.80;;;;;;4953348;28;20200;-84
2022/03/01 07:47:49;;;;;;;19.73;12.65;;;10.00;89.00;;;;;;4968614;28;20229;-84
2022/03/01 07:50:16;;;;;;;21.13;14.75;;;10.00;88.00;;;;;;5009005;28;20215;-83
2022/03/01 07:52:43;;;;;;;19.67;13.55;;;9.70;88.40;;;;;;4999541;28;20198;-84
2022/03/01 07:55:11;;;;;;;21.45;13.05;;;9.30;88.60;;;;;;4997323;28;20202;-84
2022/03/01 07:57:37;;;;;;;21.65;13.40;;;9.20;90.00;;;;;;4987820;28;20202;-85
2022/03/01 08:00:06;;;;;;;18.70;11.85;;;9.50;90.70;;;;;;4996904;28;20206;-84
2022/03/01 08:02:34;;;;;;;23.85;12.50;;;9.50;89.40;;;;;;5002491;28;20754;-86
2022/03/01 08:05:01;;;;;;;21.77;11.90;;;9.10;90.30;;;;;;5002653;28;20690;-85
2022/03/01 08:07:29;;;;;;;25.80;14.70;;;9.10;91.10;;;;;;5003766;28;20240;-85
2022/03/01 08:09:56;;;;;;;20.05;13.30;;;9.70;90.20;;;;;;5004937;28;20289;-85
2022/03/01 08:12:23;;;;;;;21.58;12.80;;;10.20;86.50;;;;;;5007643;28;20224;-85
2022/03/01 08:14:50;;;;;;;23.05;13.55;;;11.20;85.50;;;;;;4999007;28;20678;-84
2022/03/01 08:17:19;;;;;;;18.40;12.65;;;11.50;81.40;;;;;;5001709;28;20735;-84
2022/03/01 08:19:48;;;;;;;19.75;12.43;;;12.20;80.40;;;;;;5008507;28;20202;-85
2022/03/01 08:22:15;;;;;;;19.17;14.30;;;12.70;78.00;;;;;;5013302;28;20209;-83
2022/03/01 08:24:42;;;;;;;20.65;15.25;;;12.50;77.00;;;;;;5003543;28;20225;-83
2022/03/01 08:27:09;;;;;;;21.38;13.82;;;12.90;75.80;;;;;;5001998;28;20579;-83
2022/03/01 08:29:36;;;;;;;22.42;13.65;;;12.60;75.50;;;;;;5006441;28;20274;-82
2022/03/01 08:32:03;;;;;;;21.20;14.48;;;12.40;75.10;;;;;;5007866;28;20261;-82
2022/03/01 08:34:30;;;;;;;18.17;13.63;;;12.00;76.70;;;;;;5011470;28;20198;-84
2022/03/01 08:36:58;;;;;;;22.80;13.68;;;12.40;77.70;;;;;;5013291;28;20202;-84
2022/03/01 08:39:25;;;;;;;21.60;13.60;;;13.50;76.60;;;;;;5009194;28;20231;-85
2022/03/01 08:41:54;;;;;;;21.48;14.35;;;13.80;73.10;;;;;;4994762;28;20607;-85
2022/03/01 08:44:22;;;;;;;21.00;14.83;;;14.70;72.50;;;;;;4999264;28;20227;-84
2022/03/01 08:46:49;;;;;;;20.00;15.47;;;15.20;69.70;;;;;;5009846;28;20458;-83
2022/03/01 08:49:15;;;;;;;23.63;15.10;;;15.30;69.00;;;;;;5001846;28;20551;-82
2022/03/01 08:51:42;;;;;;;22.35;15.32;;;15.00;70.50;;;;;;5012904;28;20484;-85
2022/03/01 08:54:11;;;;;;;23.27;15.07;;;14.50;70.80;;;;;;5014805;28;20231;-84
2022/03/01 08:56:38;;;;;;;18.88;13.55;;;14.60;70.20;;;;;;5022953;28;20247;-84
2022/03/01 08:59:06;;;;;;;23.02;14.10;;;15.00;69.70;;;;;;5026815;28;20225;-83
2022/03/01 09:01:33;;;;;;;23.40;15.00;;;15.20;68.80;;;;;;5013285;28;20227;-81
2022/03/01 09:04:00;;;;;;;25.83;14.40;;;15.10;68.20;;;;;;5013536;28;20511;-84
2022/03/01 09:06:31;;;;;;;20.90;14.75;;;14.40;68.60;;;;;;5007185;28;20256;-84
2022/03/01 09:08:58;;;;;;;20.17;14.00;;;14.80;69.10;;;;;;5016417;28;20232;-84
2022/03/01 09:11:26;;;;;;;21.57;15.57;;;15.20;68.20;;;;;;5012913;28;20205;-84
2022/03/01 09:13:55;;;;;;;21.67;15.57;;;15.70;67.30;;;;;;5004742;28;20516;-84
2022/03/01 09:16:22;;;;;;;22.35;14.50;;;14.90;66.80;;;;;;5009761;28;20453;-82
2022/03/01 09:18:49;;;;;;;21.95;14.35;;;13.90;68.20;;;;;;5007094;28;20258;-79
2022/03/01 09:21:16;;;;;;;19.75;14.60;;;14.30;70.70;;;;;;5015402;28;20212;-81
2022/03/01 09:23:43;;;;;;;22.48;15.27;;;14.60;69.80;;;;;;5008837;28;20229;-83
2022/03/01 09:26:11;;;;;;;19.70;14.00;;;15.20;69.40;;;;;;5014743;28;20288;-83
2022/03/01 09:28:40;;;;;;;25.43;15.40;;;15.80;67.90;;;;;;5013999;28;20540;-80
2022/03/01 09:31:07;;;;;;;21.10;14.23;;;16.20;67.70;;;;;;5013653;28;20480;-83
2022/03/01 09:33:37;;;;;;;22.03;14.77;;;16.30;66.70;;;;;;5013378;28;20445;-80
2022/03/01 09:36:04;;;;;;;21.47;16.27;;;16.80;65.10;;;;;;5005628;28;20453;-84
2022/03/01 09:38:31;;;;;;;21.23;16.10;;;17.20;64.20;;;;;;5011010;28;20473;-84
2022/03/01 09:40:58;;;;;;;23.57;15.20;;;17.30;63.80;;;;;;5009513;28;20456;-83
2022/03/01 09:43:25;;;;;;;20.10;15.17;;;17.50;63.10;;;;;;5004920;28;20532;-84
2022/03/01 09:45:53;;;;;;;22.43;16.47;;;17.30;62.50;;;;;;5006239;28;20521;-85
2022/03/01 09:48:20;;;;;;;17.83;14.07;;;17.00;62.40;;;;;;4998923;28;20465;-81
2022/03/01 09:50:48;;;;;;;20.30;14.80;;;15.70;62.90;;;;;;5007457;28;20476;-83
2022/03/01 09:53:15;;;;;;;21.03;14.47;;;15.20;66.00;;;;;;5007549;28;20671;-83
2022/03/01 09:55:42;;;;;;;21.40;15.00;;;15.80;67.10;;;;;;5011031;28;20756;-82
2022/03/01 09:58:09;;;;;;;22.23;15.33;;;16.50;65.40;;;;;;5008603;28;20500;-82
2022/03/01 10:00:36;;;;;;;24.23;16.10;;;15.80;65.50;;;;;;5012658;28;20514;-80
2022/03/01 10:03:04;;;;;;;28.92;17.08;;;15.00;66.70;;;;;;5017599;28;20241;-82
2022/03/01 10:05:34;;;;;;;23.90;15.57;;;14.50;67.80;;;;;;5014742;28;20238;-82
2022/03/01 10:08:08;;;;;;;24.48;18.25;;;14.50;69.50;;;;;;5014230;28;20257;-83
2022/03/01 10:10:39;;;;;;;22.80;15.45;;;14.30;69.50;;;;;;5012754;28;20207;-83
2022/03/01 10:13:06;;;;;;;18.65;14.45;;;14.30;70.70;;;;;;5003440;28;20202;-84
2022/03/01 10:15:34;;;;;;;21.75;15.60;;;14.90;70.50;;;;;;5008772;28;20202;-84
2022/03/01 10:18:12;;;;;;;20.40;14.57;;;15.00;69.10;;;;;;5009977;28;20703;-83
2022/03/01 10:20:41;;;;;;;25.33;16.48;;;14.70;69.40;;;;;;5011032;28;20456;-84
2022/03/01 10:23:11;;;;;;;19.48;14.32;;;15.00;69.90;;;;;;5008864;28;20199;-85
2022/03/01 10:25:42;;;;;;;22.67;14.38;;;14.80;69.30;;;;;;5008641;28;20217;-80
2022/03/01 10:28:10;;;;;;;27.10;17.58;;;14.20;69.90;;;;;;5014723;28;20217;-84
2022/03/01 10:30:39;;;;;;;23.23;16.05;;;14.10;71.70;;;;;;5008746;28;20266;-84
2022/03/01 10:33:08;;;;;;;22.35;15.50;;;13.70;72.30;;;;;;5006760;28;20201;-84
2022/03/01 10:35:38;;;;;;;23.75;17.55;;;13.20;73.20;;;;;;5006656;28;20229;-85
2022/03/01 10:38:06;;;;;;;23.75;15.27;;;13.10;74.00;;;;;;5003529;28;20307;-84
2022/03/01 10:40:33;;;;;;;21.33;14.00;;;12.40;73.80;;;;;;5005466;28;20208;-84
2022/03/01 10:43:03;;;;;;;24.65;15.95;;;12.10;75.60;;;;;;5007665;28;20291;-84
2022/03/01 10:45:39;;;;;;;20.50;14.20;;;11.90;76.10;;;;;;4998884;28;20622;-83
2022/03/01 10:48:07;;;;;;;22.17;14.25;;;11.80;77.10;;;;;;5005953;28;20224;-84
2022/03/01 10:50:33;;;;;;;23.42;15.82;;;11.90;77.10;;;;;;5005913;28;20205;-85
2022/03/01 10:53:02;;;;;;;21.33;14.07;;;12.00;76.60;;;;;;5002829;28;20277;-84
2022/03/01 10:55:30;;;;;;;23.25;15.95;;;12.10;75.50;;;;;;5004003;28;20569;-84
2022/03/01 10:58:04;;;;;;;18.52;13.75;;;12.20;74.90;;;;;;5004693;28;20316;-83
2022/03/01 11:00:33;;;;;;;21.60;14.20;;;12.60;74.80;;;;;;5000791;28;20270;-85
2022/03/01 11:03:00;;;;;;;21.38;13.30;;;12.30;73.70;;;;;;5003110;28;20209;-85
2022/03/01 11:05:30;;;;;;;16.50;12.50;;;12.20;74.70;;;;;;5004987;28;20287;-84
2022/03/01 11:08:01;;;;;;;22.17;14.10;;;12.20;74.70;;;;;;5019409;28;20226;-84
2022/03/01 11:10:31;;;;;;;23.25;14.32;;;12.00;74.50;;;;;;5016618;28;20266;-85
2022/03/01 11:13:00;;;;;;;23.70;14.10;;;11.90;75.20;;;;;;5022379;28;20515;-85
2022/03/01 11:15:48;;;;;;;18.83;13.15;;;12.10;76.00;;;;;;5007395;28;20214;-80
2022/03/01 11:18:25;;;;;;;21.92;15.15;;;12.10;75.50;;;;;;4999316;28;20224;-84
2022/03/01 11:20:54;;;;;;;21.75;14.73;;;11.90;75.70;;;;;;5011982;28;20239;-85
2022/03/01 11:23:23;;;;;;;23.80;14.32;;;11.80;76.20;;;;;;5005072;28;20265;-83
2022/03/01 11:25:53;;;;;;;24.77;14.70;;;12.00;76.20;;;;;;5006046;28;20251;-85
2022/03/01 11:28:30;;;;;;;23.23;14.73;;;11.90;76.40;;;;;;5001945;28;20229;-82
2022/03/01 11:30:57;;;;;;;20.02;13.25;;;11.70;76.40;;;;;;5008170;28;20281;-84
2022/03/01 11:33:27;;;;;;;19.50;13.57;;;11.40;76.90;;;;;;5016420;28;20324;-81
2022/03/01 11:35:56;;;;;;;20.50;14.90;;;11.10;77.70;;;;;;5009859;28;20207;-83
2022/03/01 11:38:28;;;;;;;26.48;14.38;;;11.40;78.70;;;;;;5015484;28;20243;-84
2022/03/01 11:41:10;;;;;;;20.58;13.95;;;11.60;79.10;;;;;;4996975;28;20661;-84
2022/03/01 11:43:39;;;;;;;18.98;12.20;;;11.40;77.80;;;;;;5007008;28;20198;-84
2022/03/01 11:46:15;;;;;;;25.83;14.63;;;11.40;78.40;;;;;;5008953;28;20263;-84
2022/03/01 11:48:47;;;;;;;19.80;12.95;;;11.50;78.10;;;;;;5011662;28;20231;-82
2022/03/01 11:51:14;;;;;;;17.88;12.30;;;11.70;77.80;;;;;;5015068;28;20237;-83
2022/03/01 11:53:43;;;;;;;25.00;14.63;;;11.60;77.00;;;;;;5008299;28;20275;-82
2022/03/01 11:56:13;;;;;;;21.10;16.02;;;11.50;77.70;;;;;;5014213;28;20260;-82
2022/03/01 11:58:40;;;;;;;21.10;13.07;;;11.60;77.60;;;;;;5014287;28;20274;-82
2022/03/01 12:01:08;;;;;;;25.25;13.68;;;11.70;76.80;;;;;;5010230;28;20268;-80
2022/03/01 12:03:38;;;;;;;18.95;14.00;;;11.90;77.00;;;;;;5016698;28;20189;-83
2022/03/01 12:06:06;;;;;;;20.67;14.75;;;11.90;76.50;;;;;;5017099;28;20224;-85
2022/03/01 12:08:34;;;;;;;19.42;13.60;;;11.80;76.70;;;;;;5005126;28;20265;-81
2022/03/01 12:11:09;;;;;;;21.70;14.55;;;12.00;75.90;;;;;;5008296;28;20215;-80
2022/03/01 12:13:40;;;;;;;20.42;14.45;;;12.10;75.90;;;;;;5016415;28;20190;-82
2022/03/01 12:16:08;;;;;;;20.73;13.68;;;12.00;75.20;;;;;;5022615;28;20204;-83
2022/03/01 12:18:40;;;;;;;30.80;14.50;;;11.90;76.40;;;;;;4997107;28;20261;-82
2022/03/01 12:21:08;;;;;;;16.40;12.77;;;11.90;76.10;;;;;;5011769;28;20232;-81
2022/03/01 12:23:37;;;;;;;21.98;13.77;;;11.90;75.70;;;;;;5035587;28;20230;-83
2022/03/01 12:26:12;;;;;;;19.90;13.00;;;12.00;76.20;;;;;;5009939;28;20338;-84
2022/03/01 12:28:43;;;;;;;20.27;13.98;;;12.00;76.60;;;;;;5015545;28;20225;-84
2022/03/01 12:31:13;;;;;;;24.20;14.88;;;12.10;76.80;;;;;;5001225;28;20200;-83
2022/03/01 12:33:48;;;;;;;22.48;13.63;;;12.00;76.10;;;;;;5002426;28;20228;-83
2022/03/01 12:36:23;;;;;;;20.75;13.73;;;11.90;76.60;;;;;;5009162;28;20205;-83
2022/03/01 12:38:53;;;;;;;19.98;12.45;;;11.40;76.70;;;;;;5006825;28;20309;-84
2022/03/01 12:41:23;;;;;;;18.48;15.05;;;11.00;78.30;;;;;;5009122;28;20209;-82
2022/03/01 12:43:56;;;;;;;20.48;14.35;;;11.20;79.40;;;;;;4996759;28;20249;-84
2022/03/01 12:46:23;;;;;;;21.50;13.15;;;11.30;79.30;;;;;;5009125;28;20238;-85